Time;durP1;ratioP1;P1;durP2;ratioP2;P2;SDS_P1;SDS_P2;PMS_P1;PMS_P2;Temp;Humidity;BMP_temperature;BMP_pressure;BME280_temperature;BME280_humidity;BME280_pressure;Samples;Min_cycle;Max_cycle;Signal;HPM_P1;HPM_P2
2023/10/25 00:02:22;;;;;;;8.30;5.00;;;;;;;9.19;100.00;100077.28;5089294;28;20019;-63
2023/10/25 00:04:50;;;;;;;8.07;4.90;;;;;;;9.17;100.00;100076.53;5072647;28;20062;-63
2023/10/25 00:07:19;;;;;;;8.13;4.40;;;;;;;9.18;100.00;100072.09;5092268;28;20487;-63
2023/10/25 00:09:44;;;;;;;8.77;4.57;;;;;;;9.17;100.00;100070.38;5089696;28;20494;-63
2023/10/25 00:12:09;;;;;;;7.85;4.57;;;;;;;9.12;100.00;100069.84;5088403;28;20055;-62
2023/10/25 00:14:35;;;;;;;11.73;7.10;;;;;;;8.87;100.00;100061.78;5088977;28;20535;-63
2023/10/25 00:17:01;;;;;;;9.07;4.68;;;;;;;9.05;100.00;100059.66;5072032;28;20027;-63
2023/10/25 00:19:26;;;;;;;8.77;4.43;;;;;;;9.07;100.00;100056.91;5072905;28;20024;-63
2023/10/25 00:21:54;;;;;;;10.30;4.47;;;;;;;9.06;100.00;100049.94;5090648;28;20028;-63
2023/10/25 00:24:19;;;;;;;12.00;4.85;;;;;;;9.05;100.00;100050.84;5089772;28;20482;-64
2023/10/25 00:26:44;;;;;;;9.27;4.90;;;;;;;9.02;100.00;100053.72;5091621;28;20050;-63
2023/10/25 00:29:10;;;;;;;8.40;4.25;;;;;;;8.97;100.00;100055.84;5091373;28;20028;-63
2023/10/25 00:31:35;;;;;;;12.07;6.80;;;;;;;8.81;100.00;100056.06;5072363;28;20052;-63
2023/10/25 00:34:00;;;;;;;10.43;7.00;;;;;;;8.83;100.00;100057.66;5091565;28;20045;-63
2023/10/25 00:36:26;;;;;;;6.00;4.32;;;;;;;8.90;100.00;100063.38;5091186;28;20463;-63
2023/10/25 00:38:54;;;;;;;4.63;3.75;;;;;;;8.85;100.00;100058.41;5091587;28;20129;-63
2023/10/25 00:41:19;;;;;;;8.45;4.07;;;;;;;8.83;100.00;100054.16;5090939;28;20032;-63
2023/10/25 00:43:44;;;;;;;10.93;4.15;;;;;;;8.80;100.00;100049.91;5091307;28;20066;-62
2023/10/25 00:46:14;;;;;;;10.48;4.25;;;;;;;8.81;100.00;100064.84;5090676;28;20073;-63
2023/10/25 00:48:45;;;;;;;9.55;7.00;;;;;;;8.59;100.00;100054.03;5093461;28;20120;-63
2023/10/25 00:51:15;;;;;;;10.05;3.85;;;;;;;8.78;100.00;100064.22;5090438;28;20479;-63
2023/10/25 00:53:45;;;;;;;5.18;3.70;;;;;;;8.79;100.00;100063.25;5091502;28;20016;-63
2023/10/25 00:56:11;;;;;;;4.90;3.75;;;;;;;8.75;100.00;100051.19;5072952;28;20023;-63
2023/10/25 00:58:40;;;;;;;12.18;5.90;;;;;;;8.66;100.00;100057.09;5087838;28;20383;-63
2023/10/25 01:01:06;;;;;;;12.00;4.15;;;;;;;8.77;100.00;100055.44;5071172;28;20463;-63
2023/10/25 01:03:31;;;;;;;10.45;4.25;;;;;;;8.73;100.00;100042.47;5090260;28;20023;-63
2023/10/25 01:05:57;;;;;;;6.80;3.92;;;;;;;8.68;100.00;100032.19;5088663;28;20028;-63
2023/10/25 01:08:23;;;;;;;6.03;3.55;;;;;;;8.68;100.00;100029.56;5090786;28;20039;-63
2023/10/25 01:10:52;;;;;;;4.93;3.58;;;;;;;8.73;100.00;100039.81;5090523;28;20524;-62
2023/10/25 01:13:18;;;;;;;4.85;3.67;;;;;;;8.69;100.00;100036.53;5072987;28;20027;-63
2023/10/25 01:15:44;;;;;;;5.38;4.18;;;;;;;8.64;100.00;100028.88;5090434;28;20087;-63
2023/10/25 01:18:10;;;;;;;7.15;3.67;;;;;;;8.66;100.00;100034.09;5087655;28;20107;-63
2023/10/25 01:20:36;;;;;;;6.00;3.50;;;;;;;8.59;100.00;100030.19;5082679;28;20539;-63
2023/10/25 01:23:02;;;;;;;6.80;3.63;;;;;;;8.65;100.00;100032.41;5069319;28;20031;-63
2023/10/25 01:25:28;;;;;;;5.75;3.42;;;;;;;8.65;100.00;100029.75;5089390;28;20454;-63
2023/10/25 01:27:53;;;;;;;5.95;3.58;;;;;;;8.66;100.00;100022.66;5087151;28;20024;-62
2023/10/25 01:30:21;;;;;;;6.75;3.45;;;;;;;8.64;100.00;100017.44;5090533;28;20028;-63
2023/10/25 01:32:47;;;;;;;6.70;3.55;;;;;;;8.62;100.00;100011.41;5086221;28;20051;-63
2023/10/25 01:35:15;;;;;;;5.95;3.28;;;;;;;8.60;100.00;100003.56;5089270;28;20497;-63
2023/10/25 01:37:40;;;;;;;7.63;5.38;;;;;;;8.51;100.00;99998.03;5086174;28;20069;-62
2023/10/25 01:40:06;;;;;;;10.10;3.40;;;;;;;8.59;100.00;99996.56;5072510;28;20024;-62
2023/10/25 01:42:32;;;;;;;5.00;3.58;;;;;;;8.62;100.00;99992.88;5089353;28;20027;-62
2023/10/25 01:44:57;;;;;;;7.78;3.42;;;;;;;8.66;100.00;99990.84;5090133;28;20020;-63
2023/10/25 01:47:23;;;;;;;7.95;3.67;;;;;;;8.69;100.00;99986.16;5090119;28;20169;-62
2023/10/25 01:49:48;;;;;;;5.38;3.03;;;;;;;8.73;100.00;99986.81;5087437;28;20024;-62
2023/10/25 01:52:13;;;;;;;7.32;4.90;;;;;;;8.54;100.00;99980.13;5090216;28;20028;-63
2023/10/25 01:54:40;;;;;;;5.07;3.22;;;;;;;8.65;100.00;99982.03;5087276;28;20023;-63
2023/10/25 01:57:08;;;;;;;6.28;3.15;;;;;;;8.71;100.00;99978.13;5072119;28;20464;-62
2023/10/25 01:59:34;;;;;;;3.35;3.05;;;;;;;8.71;100.00;99973.66;5088494;28;20032;-63
2023/10/25 02:02:02;;;;;;;6.65;3.38;;;;;;;8.74;100.00;99972.63;5087119;28;20074;-63
2023/10/25 02:04:27;;;;;;;7.72;3.15;;;;;;;8.69;100.00;99964.97;5089060;28;20755;-63
2023/10/25 02:06:53;;;;;;;5.22;3.00;;;;;;;8.72;100.00;99963.91;5067748;28;20097;-62
2023/10/25 02:09:19;;;;;;;10.75;2.78;;;;;;;8.69;100.00;99959.66;5085729;28;20024;-63
2023/10/25 02:11:44;;;;;;;7.63;5.07;;;;;;;8.62;100.00;99963.72;5053879;28;20169;-62
2023/10/25 02:14:10;;;;;;;8.15;3.58;;;;;;;8.78;100.00;99969.63;5089793;28;20098;-62
2023/10/25 02:16:36;;;;;;;4.88;3.13;;;;;;;8.76;100.00;99963.56;5090249;28;20016;-62
2023/10/25 02:19:01;;;;;;;6.88;3.05;;;;;;;8.77;100.00;99962.63;5072028;28;20028;-63
2023/10/25 02:21:27;;;;;;;3.80;3.05;;;;;;;8.77;100.00;99959.13;5089759;28;20024;-63
2023/10/25 02:23:55;;;;;;;8.32;3.17;;;;;;;8.73;100.00;99947.88;5088509;28;20528;-62
2023/10/25 02:26:21;;;;;;;8.57;3.35;;;;;;;8.78;100.00;99944.91;5089004;28;20028;-63
2023/10/25 02:28:46;;;;;;;4.47;3.13;;;;;;;8.79;100.00;99946.59;5089591;28;20020;-62
2023/10/25 02:31:12;;;;;;;3.10;2.80;;;;;;;8.72;100.00;99932.09;5083857;28;20055;-63
2023/10/25 02:33:38;;;;;;;7.07;2.97;;;;;;;8.81;100.00;99940.25;5089880;28;20023;-63
2023/10/25 02:36:03;;;;;;;3.65;3.10;;;;;;;8.85;100.00;99936.44;5088801;28;20463;-63
2023/10/25 02:38:31;;;;;;;9.32;5.13;;;;;;;8.73;100.00;99924.03;5085398;28;20031;-63
2023/10/25 02:40:56;;;;;;;14.23;3.60;;;;;;;8.84;100.00;99929.41;5070123;28;20020;-63
2023/10/25 02:43:22;;;;;;;5.10;2.58;;;;;;;8.84;100.00;99925.91;5083558;28;20467;-63
2023/10/25 02:45:47;;;;;;;7.43;2.80;;;;;;;8.85;100.00;99914.34;5086072;28;20024;-63
2023/10/25 02:48:13;;;;;;;4.97;2.83;;;;;;;8.86;100.00;99921.38;5088499;28;20093;-63
2023/10/25 02:50:39;;;;;;;6.18;3.03;;;;;;;8.83;100.00;99906.53;5088234;28;20433;-63
2023/10/25 02:53:05;;;;;;;4.70;3.10;;;;;;;8.85;100.00;99915.22;5088452;28;20020;-63
2023/10/25 02:55:32;;;;;;;3.55;3.22;;;;;;;8.84;100.00;99913.50;5091402;28;20505;-63
2023/10/25 02:57:57;;;;;;;4.65;2.90;;;;;;;8.84;100.00;99902.06;5073198;28;20016;-63
2023/10/25 03:00:23;;;;;;;5.45;2.95;;;;;;;8.81;100.00;99896.97;5092680;28;20039;-63
2023/10/25 03:02:51;;;;;;;8.55;4.57;;;;;;;8.65;100.00;99897.22;5087320;28;20012;-62
2023/10/25 03:05:16;;;;;;;7.00;3.08;;;;;;;8.83;100.00;99893.25;5090830;28;20361;-63
2023/10/25 03:07:41;;;;;;;10.25;4.43;;;;;;;8.79;100.00;99878.50;5073374;28;20027;-63
2023/10/25 03:10:07;;;;;;;9.80;3.28;;;;;;;8.90;100.00;99879.56;5066354;28;20043;-63
2023/10/25 03:12:32;;;;;;;4.97;3.60;;;;;;;8.93;100.00;99876.69;5090315;28;20117;-63
2023/10/25 03:14:58;;;;;;;6.10;2.92;;;;;;;8.96;100.00;99879.97;5074280;28;20499;-63
2023/10/25 03:17:24;;;;;;;7.93;3.88;;;;;;;8.92;100.00;99861.75;5092263;28;20023;-62
2023/10/25 03:19:49;;;;;;;10.95;4.60;;;;;;;8.85;100.00;99863.97;5089660;28;20027;-63
2023/10/25 03:22:17;;;;;;;11.07;5.07;;;;;;;8.72;100.00;99847.28;5074302;28;20047;-63
2023/10/25 03:24:42;;;;;;;6.38;3.55;;;;;;;8.97;100.00;99872.84;5088294;28;20033;-63
2023/10/25 03:27:07;;;;;;;6.00;3.00;;;;;;;8.97;100.00;99868.41;5074107;28;20020;-62
2023/10/25 03:29:39;;;;;;;5.85;3.40;;;;;;;8.97;100.00;99863.13;5091937;28;20024;-63
2023/10/25 03:32:05;;;;;;;4.40;3.28;;;;;;;9.01;100.00;99863.72;5071898;28;20184;-63
2023/10/25 03:34:30;;;;;;;11.07;3.70;;;;;;;8.98;100.00;99853.34;5086513;28;20477;-63
2023/10/25 03:36:56;;;;;;;3.10;2.80;;;;;;;9.03;100.00;99860.03;5090865;28;20020;-63
2023/10/25 03:39:22;;;;;;;3.40;2.80;;;;;;;9.01;100.00;99861.09;5086349;28;20050;-63
2023/10/25 03:41:49;;;;;;;3.78;3.35;;;;;;;9.02;100.00;99852.16;5091282;28;20027;-63
2023/10/25 03:44:17;;;;;;;4.32;3.65;;;;;;;9.04;100.00;99855.56;5088566;28;20036;-63
2023/10/25 03:46:42;;;;;;;7.40;3.17;;;;;;;8.99;100.00;99844.44;5090154;28;20024;-63
2023/10/25 03:49:08;;;;;;;9.43;4.78;;;;;;;8.88;100.00;99842.53;5091496;28;20027;-63
2023/10/25 03:51:36;;;;;;;9.52;3.78;;;;;;;9.04;100.00;99855.56;5091534;28;20024;-63
2023/10/25 03:54:01;;;;;;;7.68;2.97;;;;;;;8.96;100.00;99844.66;5091503;28;20049;-63
2023/10/25 03:56:27;;;;;;;3.47;3.17;;;;;;;8.93;100.00;99835.09;5067701;28;20371;-62
2023/10/25 03:58:52;;;;;;;5.85;3.33;;;;;;;9.02;100.00;99842.38;5090349;28;20052;-63
2023/10/25 04:01:17;;;;;;;7.30;2.72;;;;;;;8.96;100.00;99829.56;5070184;28;20031;-63
2023/10/25 04:03:43;;;;;;;8.95;3.60;;;;;;;9.05;100.00;99846.63;5087411;28;20057;-63
2023/10/25 04:06:09;;;;;;;4.15;3.25;;;;;;;9.03;100.00;99837.94;5066213;28;20024;-63
2023/10/25 04:08:35;;;;;;;6.50;3.50;;;;;;;9.05;100.00;99850.13;5072468;28;20054;-63
2023/10/25 04:11:00;;;;;;;3.55;3.25;;;;;;;9.01;100.00;99839.88;5091761;28;20020;-62
2023/10/25 04:13:26;;;;;;;6.82;4.45;;;;;;;8.99;100.00;99845.25;5090158;28;20486;-62
2023/10/25 04:15:56;;;;;;;3.95;3.25;;;;;;;9.05;100.00;99833.38;5091562;28;20591;-63
2023/10/25 04:18:23;;;;;;;5.95;3.70;;;;;;;9.03;100.00;99832.63;5088456;28;20032;-63
2023/10/25 04:20:48;;;;;;;7.00;4.90;;;;;;;8.92;100.00;99833.41;5090864;28;20108;-62
2023/10/25 04:23:14;;;;;;;5.25;3.35;;;;;;;9.06;100.00;99835.09;5072194;28;20085;-63
2023/10/25 04:25:39;;;;;;;7.80;3.80;;;;;;;9.04;100.00;99837.84;5070850;28;20098;-63
2023/10/25 04:28:05;;;;;;;10.50;3.78;;;;;;;9.02;100.00;99839.75;5090759;28;20499;-63
2023/10/25 04:30:32;;;;;;;7.95;3.40;;;;;;;9.03;100.00;99833.50;5087097;28;20047;-63
2023/10/25 04:32:58;;;;;;;7.55;4.18;;;;;;;9.04;100.00;99832.53;5091583;28;20028;-63
2023/10/25 04:35:23;;;;;;;5.05;3.97;;;;;;;9.06;100.00;99821.81;5088306;28;20555;-63
2023/10/25 04:37:48;;;;;;;7.80;3.72;;;;;;;9.07;100.00;99813.72;5063783;28;20023;-63
2023/10/25 04:40:14;;;;;;;4.15;2.92;;;;;;;9.11;100.00;99822.31;5072051;28;20486;-63
2023/10/25 04:42:39;;;;;;;10.02;3.78;;;;;;;9.08;100.00;99818.06;5072896;28;20077;-62
2023/10/25 04:45:07;;;;;;;4.35;3.85;;;;;;;9.08;100.00;99799.50;5089669;28;20111;-63
2023/10/25 04:47:33;;;;;;;6.60;3.47;;;;;;;9.14;100.00;99811.47;5089313;28;20034;-63
2023/10/25 04:50:01;;;;;;;9.32;4.20;;;;;;;9.12;100.00;99804.56;5070806;28;20107;-63
2023/10/25 04:52:26;;;;;;;7.43;3.55;;;;;;;9.12;100.00;99793.97;5070613;28;20490;-63
2023/10/25 04:54:52;;;;;;;9.48;3.88;;;;;;;9.09;100.00;99795.91;5084260;28;20110;-63
2023/10/25 04:57:17;;;;;;;10.95;3.70;;;;;;;9.12;100.00;99794.84;5072117;28;20034;-63
2023/10/25 04:59:43;;;;;;;5.95;3.35;;;;;;;9.15;100.00;99788.44;5086909;28;20064;-62
2023/10/25 05:02:08;;;;;;;7.85;3.95;;;;;;;9.13;100.00;99780.59;5086726;28;20507;-62
2023/10/25 05:04:34;;;;;;;6.65;3.85;;;;;;;9.05;100.00;99765.25;5087167;28;20024;-62
2023/10/25 05:07:02;;;;;;;6.55;3.50;;;;;;;9.14;100.00;99787.59;5086520;28;20029;-62
2023/10/25 05:09:28;;;;;;;13.07;3.90;;;;;;;9.15;100.00;99777.81;5066883;28;20024;-63
2023/10/25 05:11:58;;;;;;;10.82;6.05;;;;;;;9.04;100.00;99765.38;5086868;28;20074;-62
2023/10/25 05:14:24;;;;;;;6.97;3.67;;;;;;;9.15;100.00;99768.09;5072852;28;20278;-62
2023/10/25 05:16:50;;;;;;;11.85;3.90;;;;;;;9.14;100.00;99766.38;5072321;28;20020;-62
2023/10/25 05:19:15;;;;;;;13.88;5.97;;;;;;;9.04;100.00;99755.59;5088919;28;20027;-62
2023/10/25 05:21:45;;;;;;;7.40;3.60;;;;;;;9.12;100.00;99754.19;5071189;28;20032;-62
2023/10/25 05:24:11;;;;;;;3.65;2.90;;;;;;;9.08;100.00;99754.41;5088866;28;20486;-62
2023/10/25 05:26:37;;;;;;;5.93;3.65;;;;;;;9.03;100.00;99742.44;5088563;28;20119;-63
2023/10/25 05:29:03;;;;;;;9.57;5.07;;;;;;;8.95;100.00;99748.34;5067284;28;20085;-63
2023/10/25 05:31:31;;;;;;;9.00;3.25;;;;;;;9.03;100.00;99745.09;5087287;28;20039;-63
2023/10/25 05:33:56;;;;;;;11.05;4.35;;;;;;;8.96;100.00;99731.47;5065433;28;20055;-62
2023/10/25 05:36:22;;;;;;;6.10;3.80;;;;;;;9.02;100.00;99741.59;5084477;28;20060;-62
2023/10/25 05:38:48;;;;;;;5.53;3.30;;;;;;;9.01;100.00;99734.63;5066504;28;20062;-62
2023/10/25 05:41:22;;;;;;;10.57;5.20;;;;;;;8.91;100.00;99727.44;5064373;28;20544;-63
2023/10/25 05:44:09;;;;;;;5.60;3.78;;;;;;;9.00;100.00;99730.28;5084527;28;20024;-63
2023/10/25 05:46:34;;;;;;;10.25;3.97;;;;;;;9.01;100.00;99728.47;5087438;28;20081;-64
2023/10/25 05:49:00;;;;;;;7.45;3.88;;;;;;;9.01;100.00;99725.81;5089823;28;20024;-64
2023/10/25 05:51:26;;;;;;;11.10;4.50;;;;;;;8.99;100.00;99728.56;5088761;28;20024;-63
2023/10/25 05:53:52;;;;;;;8.98;3.97;;;;;;;8.99;100.00;99720.63;5087861;28;20034;-64
2023/10/25 05:56:18;;;;;;;8.98;3.90;;;;;;;8.93;100.00;99712.28;5068311;28;20023;-64
2023/10/25 05:58:45;;;;;;;5.93;3.90;;;;;;;8.96;100.00;99714.72;5082639;28;20386;-64
2023/10/25 06:01:11;;;;;;;9.82;4.07;;;;;;;8.98;100.00;99715.44;5084208;28;20020;-64
2023/10/25 06:03:41;;;;;;;6.45;3.40;;;;;;;8.94;100.00;99709.53;5089590;28;20123;-63
2023/10/25 06:06:11;;;;;;;7.28;4.07;;;;;;;9.03;100.00;99715.94;5086752;28;20035;-64
2023/10/25 06:08:37;;;;;;;6.45;3.80;;;;;;;9.03;100.00;99716.78;5081451;28;20028;-64
2023/10/25 06:11:06;;;;;;;8.77;4.07;;;;;;;9.05;100.00;99706.91;5068052;28;20067;-63
2023/10/25 06:13:31;;;;;;;4.68;3.45;;;;;;;9.06;100.00;99710.44;5087795;28;20077;-64
2023/10/25 06:15:57;;;;;;;8.52;3.67;;;;;;;9.03;100.00;99702.66;5087834;28;20019;-64
2023/10/25 06:18:22;;;;;;;6.32;4.18;;;;;;;9.08;100.00;99709.31;5069447;28;20057;-64
2023/10/25 06:20:48;;;;;;;9.93;3.95;;;;;;;9.03;100.00;99690.28;5082553;28;20483;-63
2023/10/25 06:23:16;;;;;;;7.88;3.50;;;;;;;9.13;100.00;99694.88;5066188;28;20016;-64
2023/10/25 06:25:41;;;;;;;8.05;3.65;;;;;;;9.14;100.00;99691.25;5087457;28;20028;-63
2023/10/25 06:28:09;;;;;;;9.23;3.78;;;;;;;9.11;100.00;99679.06;5068076;28;20097;-63
2023/10/25 06:30:34;;;;;;;5.32;3.10;;;;;;;9.13;100.00;99684.28;5074227;28;20022;-63
2023/10/25 06:33:00;;;;;;;5.55;3.08;;;;;;;9.14;100.00;99678.84;5075462;28;20471;-64
2023/10/25 06:35:25;;;;;;;8.68;3.72;;;;;;;9.12;100.00;99669.31;5090344;28;20028;-64
2023/10/25 06:37:51;;;;;;;9.95;4.80;;;;;;;9.09;100.00;99663.28;5087671;28;20330;-63
2023/10/25 06:40:17;;;;;;;5.30;3.35;;;;;;;9.18;100.00;99666.22;5091127;28;20027;-64
2023/10/25 06:42:43;;;;;;;6.30;3.30;;;;;;;9.18;100.00;99661.75;5066352;28;20056;-64
2023/10/25 06:45:13;;;;;;;3.67;3.00;;;;;;;9.23;100.00;99670.16;5090536;28;20016;-64
2023/10/25 06:47:40;;;;;;;3.85;3.08;;;;;;;9.25;100.00;99660.28;5072362;28;20643;-64
2023/10/25 06:50:06;;;;;;;8.82;5.22;;;;;;;9.21;100.00;99656.19;5073574;28;20031;-64
2023/10/25 06:52:32;;;;;;;6.35;3.20;;;;;;;9.28;100.00;99646.78;5079737;28;20020;-64
2023/10/25 06:55:00;;;;;;;11.07;3.45;;;;;;;9.32;100.00;99644.75;5065233;28;20376;-64
2023/10/25 06:57:26;;;;;;;4.22;3.20;;;;;;;9.35;100.00;99646.31;5072350;28;20028;-64
2023/10/25 06:59:52;;;;;;;7.43;4.10;;;;;;;9.33;100.00;99644.63;5093714;28;20039;-64
2023/10/25 07:02:39;;;;;;;3.38;2.90;;;;;;;9.36;100.00;99642.72;5090095;28;20128;-64
2023/10/25 07:05:10;;;;;;;3.35;3.15;;;;;;;9.26;100.00;99618.69;5105358;28;20108;-63
2023/10/25 07:07:36;;;;;;;11.75;4.57;;;;;;;9.27;100.00;99629.19;5087873;28;20031;-64
2023/10/25 07:10:03;;;;;;;8.82;3.63;;;;;;;9.36;100.00;99626.81;5088754;28;20556;-64
2023/10/25 07:12:31;;;;;;;5.65;3.38;;;;;;;9.39;100.00;99629.22;5069837;28;20059;-64
2023/10/25 07:14:57;;;;;;;5.72;3.63;;;;;;;9.32;100.00;99612.91;5071424;28;20429;-64
2023/10/25 07:17:24;;;;;;;3.65;3.15;;;;;;;9.37;100.00;99615.22;5070493;28;20107;-65
2023/10/25 07:19:49;;;;;;;7.30;3.28;;;;;;;9.39;100.00;99630.06;5068168;28;20496;-65
2023/10/25 07:22:15;;;;;;;10.13;4.75;;;;;;;9.31;100.00;99625.34;5070446;28;20024;-65
2023/10/25 07:24:42;;;;;;;9.82;3.95;;;;;;;9.36;100.00;99616.19;5072566;28;20028;-64
2023/10/25 07:27:08;;;;;;;5.65;3.10;;;;;;;9.37;100.00;99624.00;5072093;28;20102;-64
2023/10/25 07:29:36;;;;;;;4.55;3.55;;;;;;;9.41;100.00;99619.31;5069795;28;20111;-64
2023/10/25 07:32:06;;;;;;;5.10;3.10;;;;;;;9.43;100.00;99612.06;5066099;28;20025;-64
2023/10/25 07:34:32;;;;;;;6.57;3.35;;;;;;;9.44;100.00;99605.78;5071847;28;20468;-64
2023/10/25 07:36:57;;;;;;;6.30;3.70;;;;;;;9.46;100.00;99603.88;5071250;28;20028;-64
2023/10/25 07:39:23;;;;;;;7.28;4.75;;;;;;;9.42;100.00;99600.63;5071020;28;20020;-64
2023/10/25 07:41:48;;;;;;;4.28;3.00;;;;;;;9.49;100.00;99599.16;5071968;28;20035;-65
2023/10/25 07:44:13;;;;;;;6.20;3.38;;;;;;;9.51;100.00;99599.06;5071777;28;20025;-64
2023/10/25 07:46:39;;;;;;;6.70;4.85;;;;;;;9.45;100.00;99588.94;5071094;28;20572;-64
2023/10/25 07:49:04;;;;;;;5.65;3.75;;;;;;;9.52;100.00;99579.50;5070791;28;20024;-64
2023/10/25 07:51:30;;;;;;;7.00;3.40;;;;;;;9.58;100.00;99575.53;5067720;28;20075;-64
2023/10/25 07:53:55;;;;;;;8.73;3.25;;;;;;;9.62;100.00;99572.50;5068253;28;20483;-65
2023/10/25 07:56:21;;;;;;;3.72;3.40;;;;;;;9.60;100.00;99561.16;5065024;28;20032;-64
2023/10/25 07:58:46;;;;;;;7.28;3.33;;;;;;;9.67;100.00;99570.31;5062387;28;20060;-64
2023/10/25 08:01:12;;;;;;;3.75;3.40;;;;;;;9.62;100.00;99543.31;5066032;28;20020;-64
2023/10/25 08:03:38;;;;;;;9.60;3.30;;;;;;;9.67;100.00;99545.59;5066306;28;20082;-64
2023/10/25 08:06:05;;;;;;;7.70;3.45;;;;;;;9.70;100.00;99559.44;5066034;28;20463;-64
2023/10/25 08:08:32;;;;;;;4.20;3.58;;;;;;;9.74;100.00;99552.09;5068944;28;20468;-64
2023/10/25 08:11:02;;;;;;;5.97;3.60;;;;;;;9.75;100.00;99551.13;5067987;28;20078;-63
2023/10/25 08:13:28;;;;;;;8.07;4.97;;;;;;;9.64;100.00;99545.81;5073260;28;20410;-64
2023/10/25 08:15:58;;;;;;;6.35;3.40;;;;;;;9.73;100.00;99543.28;5090835;28;20046;-64
2023/10/25 08:18:23;;;;;;;13.15;4.00;;;;;;;9.76;100.00;99535.09;5091897;28;20101;-64
2023/10/25 08:20:49;;;;;;;6.93;5.10;;;;;;;9.77;100.00;99531.44;5071886;28;20120;-64
2023/10/25 08:23:14;;;;;;;6.65;4.60;;;;;;;9.70;100.00;99527.59;5074452;28;20032;-63
2023/10/25 08:25:40;;;;;;;4.70;3.35;;;;;;;9.84;100.00;99520.34;5091771;28;20016;-64
2023/10/25 08:28:05;;;;;;;9.82;4.68;;;;;;;9.73;100.00;99524.69;5092404;28;20028;-64
2023/10/25 08:30:30;;;;;;;5.03;2.83;;;;;;;9.84;100.00;99528.28;5090271;28;20464;-64
2023/10/25 08:32:58;;;;;;;3.30;3.00;;;;;;;9.82;100.00;99525.75;5091436;28;20036;-64
2023/10/25 08:35:23;;;;;;;8.82;3.33;;;;;;;9.87;100.00;99512.94;5090289;28;20081;-64
2023/10/25 08:37:49;;;;;;;3.33;2.95;;;;;;;9.83;100.00;99498.25;5091051;28;20016;-64
2023/10/25 08:40:15;;;;;;;9.98;4.70;;;;;;;9.79;100.00;99499.44;5090944;28;20391;-65
2023/10/25 08:42:43;;;;;;;10.52;5.00;;;;;;;9.75;100.00;99485.59;5057191;28;20471;-64
2023/10/25 08:45:08;;;;;;;3.50;3.20;;;;;;;9.87;100.00;99488.22;5091784;28;20012;-64
2023/10/25 08:47:39;;;;;;;5.05;4.20;;;;;;;9.72;100.00;99474.38;5091759;28;20479;-64
2023/10/25 08:50:05;;;;;;;6.63;3.72;;;;;;;9.87;100.00;99482.91;5089693;28;20367;-64
2023/10/25 08:52:30;;;;;;;4.57;3.38;;;;;;;9.88;100.00;99485.44;5104110;28;20035;-64
2023/10/25 08:54:56;;;;;;;9.63;3.55;;;;;;;9.89;100.00;99479.16;5091525;28;20063;-64
2023/10/25 08:57:21;;;;;;;11.05;5.80;;;;;;;9.75;100.00;99461.69;5088204;28;20025;-64
2023/10/25 08:59:47;;;;;;;10.45;5.63;;;;;;;9.81;100.00;99472.78;5082831;28;20032;-64
2023/10/25 09:02:14;;;;;;;6.47;3.30;;;;;;;9.89;100.00;99471.19;5089135;28;20042;-64
2023/10/25 09:04:59;;;;;;;7.40;3.85;;;;;;;9.91;100.00;99466.59;5084068;28;20543;-64
2023/10/25 09:07:32;;;;;;;8.30;4.13;;;;;;;9.92;100.00;99462.13;5082243;28;20372;-64
2023/10/25 09:09:58;;;;;;;7.25;5.20;;;;;;;9.85;100.00;99459.13;5085312;28;20191;-64
2023/10/25 09:12:24;;;;;;;16.38;3.58;;;;;;;9.91;100.00;99455.97;5088742;28;20107;-64
2023/10/25 09:14:51;;;;;;;9.93;6.78;;;;;;;9.85;100.00;99461.78;5073231;28;20080;-64
2023/10/25 09:17:17;;;;;;;7.95;5.90;;;;;;;9.77;100.00;99454.44;5071553;28;20024;-64
2023/10/25 09:19:44;;;;;;;10.10;5.80;;;;;;;9.75;100.00;99463.50;5055994;28;20498;-64
2023/10/25 09:22:30;;;;;;;7.78;4.22;;;;;;;9.88;100.00;99460.69;5053103;28;20492;-64
2023/10/25 09:24:58;;;;;;;6.05;3.50;;;;;;;9.88;100.00;99464.19;5071515;28;20475;-64
2023/10/25 09:27:25;;;;;;;7.33;3.70;;;;;;;9.86;100.00;99462.63;5071228;28;20451;-64
2023/10/25 09:29:51;;;;;;;13.18;5.97;;;;;;;9.73;100.00;99454.81;5058617;28;20282;-64
2023/10/25 09:32:19;;;;;;;8.07;4.07;;;;;;;9.86;100.00;99457.31;5086159;28;20066;-64
2023/10/25 09:34:46;;;;;;;6.03;3.45;;;;;;;9.85;100.00;99437.88;5088105;28;20498;-64
2023/10/25 09:37:12;;;;;;;4.85;3.78;;;;;;;9.85;100.00;99435.22;5090538;28;20020;-64
2023/10/25 09:39:40;;;;;;;4.68;4.15;;;;;;;9.83;100.00;99433.69;5080281;28;20479;-64
2023/10/25 09:42:15;;;;;;;6.65;3.78;;;;;;;9.81;100.00;99417.88;5072534;28;20043;-64
2023/10/25 09:44:50;;;;;;;6.72;3.97;;;;;;;9.81;100.00;99417.88;5091106;28;20554;-64
2023/10/25 09:47:18;;;;;;;5.57;4.53;;;;;;;9.82;100.00;99413.38;5091163;28;20031;-64
2023/10/25 09:49:45;;;;;;;9.48;6.20;;;;;;;9.60;100.00;99395.75;5085946;28;20066;-64
2023/10/25 09:52:18;;;;;;;9.60;6.32;;;;;;;9.70;100.00;99407.28;5091126;28;20034;-64
2023/10/25 09:54:50;;;;;;;8.60;4.40;;;;;;;9.78;100.00;99405.69;5090928;28;20020;-64
2023/10/25 09:57:17;;;;;;;7.90;4.22;;;;;;;9.76;100.00;99388.19;5072498;28;20032;-64
2023/10/25 09:59:44;;;;;;;5.32;4.07;;;;;;;9.74;100.00;99385.69;5089866;28;20058;-65
2023/10/25 10:02:19;;;;;;;13.00;7.07;;;;;;;9.67;100.00;99387.13;5089700;28;20073;-65
2023/10/25 10:04:56;;;;;;;5.65;3.95;;;;;;;9.77;100.00;99390.72;5080221;28;20032;-65
2023/10/25 10:07:49;;;;;;;8.80;4.22;;;;;;;9.77;100.00;99371.31;5060991;28;20044;-64
2023/10/25 10:10:24;;;;;;;8.10;6.93;;;;;;;9.70;100.00;99362.16;5078534;28;20066;-64
2023/10/25 10:12:50;;;;;;;7.10;4.53;;;;;;;9.72;100.00;99369.03;5094030;28;20075;-65
2023/10/25 10:15:16;;;;;;;9.55;4.78;;;;;;;9.71;100.00;99364.69;5109021;28;20489;-64
2023/10/25 10:17:44;;;;;;;7.32;4.70;;;;;;;9.73;100.00;99351.28;5094418;28;20017;-64
2023/10/25 10:20:30;;;;;;;9.38;8.23;;;;;;;9.68;100.00;99345.53;5073984;28;20530;-64
2023/10/25 10:23:03;;;;;;;9.63;6.20;;;;;;;9.71;100.00;99342.63;5090597;28;20058;-64
2023/10/25 10:25:50;;;;;;;11.48;8.20;;;;;;;9.64;100.00;99328.16;5055941;28;20029;-64
2023/10/25 10:28:35;;;;;;;6.65;5.40;;;;;;;9.71;100.00;99327.53;5093704;28;20129;-65
2023/10/25 10:31:00;;;;;;;6.03;5.47;;;;;;;9.70;100.00;99317.84;5075771;28;20024;-64
2023/10/25 10:33:26;;;;;;;6.30;4.32;;;;;;;9.71;100.00;99310.75;5094560;28;20024;-64
2023/10/25 10:35:51;;;;;;;4.97;4.47;;;;;;;9.65;100.00;99304.16;5072105;28;20475;-64
2023/10/25 10:38:19;;;;;;;10.35;7.25;;;;;;;9.64;100.00;99304.28;5091102;28;20047;-64
2023/10/25 10:40:50;;;;;;;8.23;4.43;;;;;;;9.58;100.00;99283.56;5075764;28;20043;-64
2023/10/25 10:43:16;;;;;;;11.48;8.15;;;;;;;9.65;100.00;99295.34;5093428;28;20025;-64
2023/10/25 10:45:46;;;;;;;5.70;4.20;;;;;;;9.72;100.00;99294.69;5087984;28;20028;-64
2023/10/25 10:48:21;;;;;;;6.90;4.55;;;;;;;9.76;100.00;99290.81;5089270;28;20027;-64
2023/10/25 10:50:49;;;;;;;7.88;4.50;;;;;;;9.79;100.00;99284.38;5067016;28;20032;-64
2023/10/25 10:53:15;;;;;;;6.57;4.05;;;;;;;9.76;100.00;99274.03;5094078;28;20055;-65
2023/10/25 10:55:41;;;;;;;6.53;4.38;;;;;;;9.81;100.00;99273.66;5080322;28;20407;-64
2023/10/25 10:58:09;;;;;;;8.77;4.68;;;;;;;9.79;100.00;99260.47;5074146;28;20106;-64
2023/10/25 11:00:34;;;;;;;7.25;5.03;;;;;;;9.84;100.00;99260.94;5092476;28;20066;-64
2023/10/25 11:03:04;;;;;;;7.07;4.47;;;;;;;9.80;100.00;99245.41;5094646;28;20101;-63
2023/10/25 11:05:31;;;;;;;10.25;4.43;;;;;;;9.85;100.00;99245.84;5073111;28;20028;-64
2023/10/25 11:07:56;;;;;;;9.20;7.40;;;;;;;9.77;100.00;99243.88;5071265;28;20039;-64
2023/10/25 11:10:22;;;;;;;9.50;7.47;;;;;;;9.75;100.00;99246.63;5088241;28;20407;-64
2023/10/25 11:12:47;;;;;;;9.02;7.40;;;;;;;9.82;100.00;99238.97;5055266;28;20051;-64
2023/10/25 11:15:13;;;;;;;7.13;4.60;;;;;;;9.85;100.00;99224.59;5080316;28;20407;-64
2023/10/25 11:17:39;;;;;;;8.77;7.78;;;;;;;9.75;100.00;99233.38;5072929;28;20020;-64
2023/10/25 11:20:06;;;;;;;6.75;4.35;;;;;;;9.86;100.00;99227.13;5097354;28;20020;-64
2023/10/25 11:22:32;;;;;;;7.30;6.60;;;;;;;9.80;100.00;99221.53;5069844;28;20024;-64
2023/10/25 11:24:59;;;;;;;5.97;4.40;;;;;;;9.87;100.00;99210.22;5073324;28;20036;-64
2023/10/25 11:27:32;;;;;;;6.90;4.97;;;;;;;9.90;100.00;99217.09;5091364;28;20537;-64
2023/10/25 11:29:59;;;;;;;7.35;4.70;;;;;;;9.89;100.00;99199.47;5083852;28;20046;-64
2023/10/25 11:32:30;;;;;;;9.52;7.18;;;;;;;9.83;100.00;99200.03;5090534;28;20402;-64